Time;durP1;ratioP1;P1;durP2;ratioP2;P2;SDS_P1;SDS_P2;PMS_P1;PMS_P2;Temp;Humidity;BMP_temperature;BMP_pressure;BME280_temperature;BME280_humidity;BME280_pressure;Samples;Min_cycle;Max_cycle;Signal;HPM_P1;HPM_P2
2024/01/28 00:00:18;;;;;;;1999.90;999.90;;;10.70;99.90;;;;;;5070918;28;20027;-74
2024/01/28 00:02:44;;;;;;;1999.90;999.90;;;10.70;99.90;;;;;;5074349;28;20025;-73
2024/01/28 00:05:13;;;;;;;1999.90;999.90;;;10.70;99.90;;;;;;5075582;28;20476;-73
2024/01/28 00:07:39;;;;;;;1999.90;999.90;;;10.60;99.90;;;;;;5075660;28;20032;-74
2024/01/28 00:10:06;;;;;;;1999.90;999.90;;;10.60;99.90;;;;;;5075495;28;20029;-72
2024/01/28 00:12:32;;;;;;;1999.90;999.90;;;10.50;99.90;;;;;;5075496;28;20036;-74
2024/01/28 00:14:58;;;;;;;1999.90;999.90;;;10.50;99.90;;;;;;5075884;28;20496;-74
2024/01/28 00:17:24;;;;;;;1999.90;999.90;;;10.50;99.90;;;;;;5075579;28;20056;-73
2024/01/28 00:19:49;;;;;;;1999.90;999.90;;;10.40;99.90;;;;;;5075577;28;20081;-72
2024/01/28 00:22:15;;;;;;;1999.90;999.90;;;10.40;99.90;;;;;;5075156;28;20105;-74
2024/01/28 00:24:41;;;;;;;1999.90;999.90;;;10.30;99.90;;;;;;5075749;28;20038;-72
2024/01/28 00:27:06;;;;;;;1999.90;999.90;;;10.30;99.90;;;;;;5075442;28;20576;-74
2024/01/28 00:29:32;;;;;;;1999.90;999.90;;;10.30;99.90;;;;;;5075363;28;20025;-74
2024/01/28 00:32:01;;;;;;;1999.90;999.90;;;10.20;99.90;;;;;;5075369;28;20052;-74
2024/01/28 00:34:26;;;;;;;1999.90;999.90;;;10.20;99.90;;;;;;5075097;28;20545;-74
2024/01/28 00:36:53;;;;;;;1999.90;999.90;;;10.20;99.90;;;;;;5075492;28;20025;-74
2024/01/28 00:39:19;;;;;;;1999.90;999.90;;;10.20;99.90;;;;;;5075426;28;20046;-73
2024/01/28 00:41:44;;;;;;;1999.90;999.90;;;10.20;99.90;;;;;;5074962;28;20176;-73
2024/01/28 00:44:10;;;;;;;1999.90;999.90;;;10.20;99.90;;;;;;5075179;28;20029;-74
2024/01/28 00:46:36;;;;;;;1999.90;999.90;;;10.20;99.90;;;;;;5074974;28;20028;-72
2024/01/28 00:49:03;;;;;;;1999.90;999.90;;;10.10;99.90;;;;;;5075155;28;20039;-74
2024/01/28 00:51:31;;;;;;;1999.90;999.90;;;10.10;99.90;;;;;;5075793;28;20029;-74
2024/01/28 00:53:57;;;;;;;1999.90;999.90;;;10.10;99.90;;;;;;5075149;28;20056;-74
2024/01/28 00:56:23;;;;;;;1999.90;999.90;;;10.10;99.90;;;;;;5073920;28;20024;-74
2024/01/28 00:58:49;;;;;;;1999.90;999.90;;;10.10;99.90;;;;;;5075108;28;20032;-72
2024/01/28 01:01:14;;;;;;;1999.90;999.90;;;10.10;99.90;;;;;;5074574;28;20035;-74
2024/01/28 01:03:40;;;;;;;1999.90;999.90;;;10.00;99.90;;;;;;5074446;28;20099;-74
2024/01/28 01:06:07;;;;;;;1999.90;999.90;;;10.00;99.90;;;;;;5074751;28;20067;-74
2024/01/28 01:08:33;;;;;;;1999.90;999.90;;;10.00;99.90;;;;;;5074278;28;20028;-73
2024/01/28 01:11:03;;;;;;;1999.90;999.90;;;10.00;99.90;;;;;;5074923;28;20036;-74
2024/01/28 01:13:30;;;;;;;1999.90;999.90;;;9.90;99.90;;;;;;5074314;28;20052;-74
2024/01/28 01:15:55;;;;;;;1999.90;999.90;;;9.90;99.90;;;;;;5074909;28;20082;-74
2024/01/28 01:18:23;;;;;;;1999.90;999.90;;;9.90;99.90;;;;;;5074303;28;20037;-73
2024/01/28 01:20:52;;;;;;;1999.90;999.90;;;9.90;99.90;;;;;;5074374;28;20032;-74
2024/01/28 01:23:18;;;;;;;1999.90;999.90;;;9.90;99.90;;;;;;5074698;28;20412;-74
2024/01/28 01:25:44;;;;;;;1999.90;999.90;;;9.90;99.90;;;;;;5074787;28;20053;-74
2024/01/28 01:28:10;;;;;;;1999.90;999.90;;;9.90;99.90;;;;;;5074113;28;20499;-74
2024/01/28 01:30:36;;;;;;;1999.90;999.90;;;9.90;99.90;;;;;;5074116;28;20017;-74
2024/01/28 01:33:01;;;;;;;1999.90;999.90;;;9.90;99.90;;;;;;5074152;28;20028;-74
2024/01/28 01:35:27;;;;;;;1999.90;999.90;;;9.90;99.90;;;;;;5074361;28;20028;-73
2024/01/28 01:37:54;;;;;;;1999.90;999.90;;;9.80;99.90;;;;;;5074076;28;20155;-74
2024/01/28 01:40:20;;;;;;;1999.90;999.90;;;9.80;99.90;;;;;;5074005;28;20146;-74
2024/01/28 01:42:46;;;;;;;1999.90;999.90;;;9.80;99.90;;;;;;5074036;28;20027;-74
2024/01/28 01:45:12;;;;;;;1999.90;999.90;;;9.80;99.90;;;;;;5073745;28;20059;-72
2024/01/28 01:47:41;;;;;;;1999.90;999.90;;;9.90;99.90;;;;;;5073831;28;20098;-74
2024/01/28 01:50:10;;;;;;;1999.90;999.90;;;9.90;99.90;;;;;;5073883;28;20056;-74
2024/01/28 01:52:41;;;;;;;1999.90;999.90;;;10.00;99.90;;;;;;5073671;28;20033;-74
2024/01/28 01:55:08;;;;;;;1999.90;999.90;;;10.00;99.90;;;;;;5074044;28;20118;-73
2024/01/28 01:57:37;;;;;;;1999.90;999.90;;;10.00;99.90;;;;;;5073701;28;20158;-74
2024/01/28 02:00:03;;;;;;;1999.90;999.90;;;9.90;99.90;;;;;;5073626;28;20048;-73
2024/01/28 02:02:29;;;;;;;1999.90;999.90;;;9.90;99.90;;;;;;5073141;28;20032;-74
2024/01/28 02:04:56;;;;;;;1999.90;999.90;;;9.90;99.90;;;;;;5073367;28;20040;-73
2024/01/28 02:07:22;;;;;;;1999.90;999.90;;;9.90;99.90;;;;;;5072532;28;20044;-73
2024/01/28 02:09:48;;;;;;;1999.90;999.90;;;9.80;99.90;;;;;;5073498;28;20094;-74
2024/01/28 02:12:13;;;;;;;1999.90;999.90;;;9.80;99.90;;;;;;5073566;28;20040;-74
2024/01/28 02:14:39;;;;;;;1999.90;999.90;;;9.80;99.90;;;;;;5073319;28;20441;-73
2024/01/28 02:17:05;;;;;;;1999.90;999.90;;;9.80;99.90;;;;;;5073272;28;20025;-74
2024/01/28 02:19:31;;;;;;;1999.90;999.90;;;9.80;99.90;;;;;;5073336;28;20038;-74
2024/01/28 02:21:56;;;;;;;1999.90;999.90;;;9.80;99.90;;;;;;5073089;28;20021;-74
2024/01/28 02:24:22;;;;;;;1999.90;999.90;;;9.70;99.90;;;;;;5072484;28;20025;-73
2024/01/28 02:26:48;;;;;;;1999.90;999.90;;;9.70;99.90;;;;;;5073228;28;20082;-74
2024/01/28 02:29:13;;;;;;;1999.90;999.90;;;9.70;99.90;;;;;;5073093;28;20391;-73
2024/01/28 02:31:39;;;;;;;1999.90;999.90;;;9.60;99.90;;;;;;5073373;28;20035;-74
2024/01/28 02:34:05;;;;;;;1999.90;999.90;;;9.60;99.90;;;;;;5073035;28;20061;-74
2024/01/28 02:36:31;;;;;;;1999.90;999.90;;;9.50;99.90;;;;;;5072791;28;20036;-73
2024/01/28 02:38:58;;;;;;;1999.90;999.90;;;9.50;99.90;;;;;;5072896;28;20062;-73
2024/01/28 02:41:24;;;;;;;1999.90;999.90;;;9.40;99.90;;;;;;5073290;28;20075;-74
2024/01/28 02:43:50;;;;;;;1999.90;999.90;;;9.30;99.90;;;;;;5072780;28;20483;-72
2024/01/28 02:46:16;;;;;;;1999.90;999.90;;;9.30;99.90;;;;;;5072892;28;20032;-73
2024/01/28 02:48:41;;;;;;;1999.90;999.90;;;9.20;99.90;;;;;;5072783;28;20055;-73
2024/01/28 02:51:07;;;;;;;1999.90;999.90;;;9.20;99.90;;;;;;5072894;28;20047;-73
2024/01/28 02:53:33;;;;;;;1999.90;999.90;;;9.20;99.90;;;;;;5072780;28;20104;-73
2024/01/28 02:56:00;;;;;;;1999.90;999.90;;;9.10;99.90;;;;;;5072446;28;20028;-73
2024/01/28 02:58:30;;;;;;;1999.90;999.90;;;9.10;99.90;;;;;;5072729;28;20059;-74
2024/01/28 03:00:56;;;;;;;1999.90;999.90;;;9.00;99.90;;;;;;5072512;28;20471;-74
2024/01/28 03:03:21;;;;;;;1999.90;999.90;;;9.10;99.90;;;;;;5072728;28;20112;-72
2024/01/28 03:05:47;;;;;;;1999.90;999.90;;;9.10;99.90;;;;;;5072177;28;20036;-74
2024/01/28 03:08:13;;;;;;;1999.90;999.90;;;9.00;99.90;;;;;;5072600;28;20422;-74
2024/01/28 03:10:39;;;;;;;1999.90;999.90;;;9.00;99.90;;;;;;5072351;28;20447;-73
2024/01/28 03:13:05;;;;;;;1999.90;999.90;;;9.00;99.90;;;;;;5071131;28;20103;-73
2024/01/28 03:15:31;;;;;;;1999.90;999.90;;;9.10;99.90;;;;;;5072564;28;20060;-73
2024/01/28 03:17:56;;;;;;;1999.90;999.90;;;9.10;99.90;;;;;;5072715;28;20047;-73
2024/01/28 03:20:24;;;;;;;1999.90;999.90;;;9.10;99.90;;;;;;5072288;28;20036;-73
2024/01/28 03:22:50;;;;;;;1999.90;999.90;;;9.10;99.90;;;;;;5072567;28;20017;-73
2024/01/28 03:25:15;;;;;;;1999.90;999.90;;;9.10;99.90;;;;;;5072649;28;20604;-74
2024/01/28 03:27:41;;;;;;;1999.90;999.90;;;9.10;99.90;;;;;;5072540;28;20036;-73
2024/01/28 03:30:08;;;;;;;1999.90;999.90;;;9.00;99.90;;;;;;5072482;28;20487;-72
2024/01/28 03:32:34;;;;;;;1999.90;999.90;;;9.00;99.90;;;;;;5072342;28;20020;-74
2024/01/28 03:35:01;;;;;;;1999.90;999.90;;;9.00;99.90;;;;;;5072419;28;20032;-73
2024/01/28 03:37:27;;;;;;;1999.90;999.90;;;8.90;99.90;;;;;;5075589;28;20517;-74
2024/01/28 03:39:52;;;;;;;1999.90;999.90;;;9.00;99.90;;;;;;5076211;28;20025;-72
2024/01/28 03:42:18;;;;;;;1999.90;999.90;;;9.00;99.90;;;;;;5076169;28;20502;-74
2024/01/28 03:44:43;;;;;;;1999.90;999.90;;;9.00;99.90;;;;;;5076107;28;20032;-73
2024/01/28 03:47:09;;;;;;;1999.90;999.90;;;8.90;99.90;;;;;;5076180;28;20019;-73
2024/01/28 03:49:35;;;;;;;1999.90;999.90;;;8.90;99.90;;;;;;5076005;28;20025;-74
2024/01/28 03:52:00;;;;;;;1999.90;999.90;;;8.80;99.90;;;;;;5076264;28;20024;-74
2024/01/28 03:54:26;;;;;;;1999.90;999.90;;;8.90;99.90;;;;;;5075613;28;20154;-73
2024/01/28 03:56:52;;;;;;;1999.90;999.90;;;8.90;99.90;;;;;;5076296;28;20107;-73
2024/01/28 03:59:17;;;;;;;1999.90;999.90;;;8.90;99.90;;;;;;5075895;28;20028;-74
2024/01/28 04:01:43;;;;;;;1999.90;999.90;;;8.90;99.90;;;;;;5074732;28;20023;-73
2024/01/28 04:04:09;;;;;;;1999.90;999.90;;;9.00;99.90;;;;;;5075487;28;20588;-73
2024/01/28 04:06:44;;;;;;;1999.90;999.90;;;9.00;99.90;;;;;;5075364;28;20411;-74
2024/01/28 04:09:10;;;;;;;1999.90;999.90;;;8.90;99.90;;;;;;5075702;28;20032;-73
2024/01/28 04:11:36;;;;;;;1999.90;999.90;;;8.90;99.90;;;;;;5075926;28;20029;-74
2024/01/28 04:14:01;;;;;;;1999.90;999.90;;;8.90;99.90;;;;;;5075794;28;20028;-73
2024/01/28 04:16:28;;;;;;;1999.90;999.90;;;8.80;99.90;;;;;;5075630;28;20053;-74
2024/01/28 04:18:55;;;;;;;1999.90;999.90;;;8.70;99.90;;;;;;5075146;28;20020;-74
2024/01/28 04:21:23;;;;;;;1999.90;999.90;;;8.70;99.90;;;;;;5075341;28;20112;-73
2024/01/28 04:23:51;;;;;;;1999.90;999.90;;;8.60;99.90;;;;;;5075291;28;20099;-73
2024/01/28 04:26:17;;;;;;;1999.90;999.90;;;8.60;99.90;;;;;;5074747;28;20036;-73
2024/01/28 04:28:43;;;;;;;1999.90;999.90;;;8.70;99.90;;;;;;5055155;28;20408;-72
2024/01/28 04:31:09;;;;;;;1999.90;999.90;;;8.70;99.90;;;;;;5055514;28;20480;-73
2024/01/28 04:33:35;;;;;;;1999.90;999.90;;;8.70;99.90;;;;;;5071588;28;20413;-74
2024/01/28 04:36:00;;;;;;;1999.90;999.90;;;8.70;99.90;;;;;;5075426;28;20132;-74
2024/01/28 04:38:26;;;;;;;1999.90;999.90;;;8.70;99.90;;;;;;5074982;28;20025;-74
2024/01/28 04:40:51;;;;;;;1999.90;999.90;;;8.70;99.90;;;;;;5075226;28;20472;-74
2024/01/28 04:43:17;;;;;;;1999.90;999.90;;;8.60;99.90;;;;;;5075403;28;20013;-73
2024/01/28 04:45:43;;;;;;;1999.90;999.90;;;8.60;99.90;;;;;;5075135;28;20028;-74
2024/01/28 04:48:08;;;;;;;1999.90;999.90;;;8.60;99.90;;;;;;5074542;28;20016;-74
2024/01/28 04:50:34;;;;;;;1999.90;999.90;;;8.70;99.90;;;;;;5074929;28;20021;-73
2024/01/28 04:53:00;;;;;;;1999.90;999.90;;;8.80;99.90;;;;;;5075055;28;20021;-74
2024/01/28 04:55:25;;;;;;;1999.90;999.90;;;8.90;99.90;;;;;;5075044;28;20096;-73
2024/01/28 04:57:51;;;;;;;1999.90;999.90;;;8.90;99.90;;;;;;5074667;28;20541;-74
2024/01/28 05:00:17;;;;;;;1999.90;999.90;;;9.00;99.90;;;;;;5074614;28;20550;-74
2024/01/28 05:02:43;;;;;;;1999.90;999.90;;;9.10;99.90;;;;;;5074785;28;20029;-73
2024/01/28 05:05:08;;;;;;;1999.90;999.90;;;9.20;99.90;;;;;;5074441;28;20051;-74
2024/01/28 05:07:34;;;;;;;1999.90;999.90;;;9.20;99.90;;;;;;5074819;28;20384;-74
2024/01/28 05:09:59;;;;;;;1999.90;999.90;;;9.20;99.90;;;;;;5074451;28;20035;-73
2024/01/28 05:12:25;;;;;;;1999.90;999.90;;;9.20;99.90;;;;;;5074624;28;20031;-73
2024/01/28 05:14:51;;;;;;;1999.90;999.90;;;9.20;99.90;;;;;;5075138;28;20075;-73
2024/01/28 05:17:17;;;;;;;1999.90;999.90;;;9.20;99.90;;;;;;5074569;28;20032;-74
2024/01/28 05:19:42;;;;;;;1999.90;999.90;;;9.20;99.90;;;;;;5074504;28;20028;-73
2024/01/28 05:22:08;;;;;;;1999.90;999.90;;;9.10;99.90;;;;;;5074218;28;20070;-73
2024/01/28 05:24:34;;;;;;;1999.90;999.90;;;9.10;99.90;;;;;;5074449;28;20032;-74
2024/01/28 05:27:00;;;;;;;1999.90;999.90;;;9.10;99.90;;;;;;5074394;28;20090;-73
2024/01/28 05:29:25;;;;;;;1999.90;999.90;;;9.00;99.90;;;;;;5073492;28;20372;-74
2024/01/28 05:31:52;;;;;;;1999.90;999.90;;;9.10;99.90;;;;;;5074233;28;20032;-73
2024/01/28 05:34:18;;;;;;;1999.90;999.90;;;9.10;99.90;;;;;;5074107;28;20028;-73
2024/01/28 05:36:50;;;;;;;1999.90;999.90;;;9.10;99.90;;;;;;5074136;28;20056;-73
2024/01/28 05:39:17;;;;;;;1999.90;999.90;;;9.20;99.90;;;;;;5074104;28;20094;-73
2024/01/28 05:41:43;;;;;;;1999.90;999.90;;;9.30;99.90;;;;;;5074063;28;20051;-73
2024/01/28 05:44:09;;;;;;;1999.90;999.90;;;9.30;99.90;;;;;;5056039;28;20395;-73
2024/01/28 05:46:35;;;;;;;1999.90;999.90;;;9.30;99.90;;;;;;5073694;28;20025;-73
2024/01/28 05:49:01;;;;;;;1999.90;999.90;;;9.30;99.90;;;;;;5074049;28;20032;-73
2024/01/28 05:51:27;;;;;;;1999.90;999.90;;;9.20;99.90;;;;;;5073994;28;20085;-73
2024/01/28 05:53:54;;;;;;;1999.90;999.90;;;9.10;99.90;;;;;;5073930;28;20032;-73
2024/01/28 05:56:20;;;;;;;1999.90;999.90;;;9.10;99.90;;;;;;5073782;28;20031;-74
2024/01/28 05:58:47;;;;;;;1999.90;999.90;;;9.00;99.90;;;;;;5073396;28;20117;-74
2024/01/28 06:01:12;;;;;;;1999.90;999.90;;;9.00;99.90;;;;;;5072616;28;20021;-73
2024/01/28 06:03:38;;;;;;;1999.90;999.90;;;9.00;99.90;;;;;;5055690;28;20043;-73
2024/01/28 06:06:04;;;;;;;1999.90;999.90;;;9.00;99.90;;;;;;5073312;28;20124;-74
2024/01/28 06:08:30;;;;;;;1999.90;999.90;;;9.00;99.90;;;;;;5073458;28;20100;-74
2024/01/28 06:10:56;;;;;;;1999.90;999.90;;;9.10;99.90;;;;;;5073562;28;20104;-73
2024/01/28 06:13:21;;;;;;;1999.90;999.90;;;9.10;99.90;;;;;;5073472;28;20116;-74
2024/01/28 06:15:47;;;;;;;1999.90;999.90;;;9.10;99.90;;;;;;5073478;28;20434;-74
2024/01/28 06:18:13;;;;;;;1999.90;999.90;;;9.20;99.90;;;;;;5073459;28;20040;-74
2024/01/28 06:20:38;;;;;;;1999.90;999.90;;;9.20;99.90;;;;;;5073253;28;20028;-74
2024/01/28 06:23:04;;;;;;;1999.90;999.90;;;9.20;99.90;;;;;;5073118;28;20051;-73
2024/01/28 06:25:30;;;;;;;1999.90;999.90;;;9.30;99.90;;;;;;5073733;28;20095;-74
2024/01/28 06:27:55;;;;;;;1999.90;999.90;;;9.40;99.90;;;;;;5073353;28;20032;-74
2024/01/28 06:30:21;;;;;;;1999.90;999.90;;;9.50;99.90;;;;;;5073141;28;20031;-73
2024/01/28 06:32:47;;;;;;;1999.90;999.90;;;9.50;99.90;;;;;;5055130;28;20479;-74
2024/01/28 06:35:12;;;;;;;1999.90;999.90;;;9.50;99.90;;;;;;5073167;28;20027;-73
2024/01/28 06:37:39;;;;;;;1999.90;999.90;;;9.60;99.90;;;;;;5054968;28;20040;-74
2024/01/28 06:40:06;;;;;;;1999.90;999.90;;;9.70;99.90;;;;;;5073032;28;20020;-74
2024/01/28 06:42:32;;;;;;;1999.90;999.90;;;9.70;99.90;;;;;;5072113;28;20041;-74
2024/01/28 06:44:59;;;;;;;1999.90;999.90;;;9.70;99.90;;;;;;5073169;28;20020;-74
2024/01/28 06:47:25;;;;;;;1999.90;999.90;;;9.70;99.90;;;;;;5072871;28;20020;-73
2024/01/28 06:49:51;;;;;;;1999.90;999.90;;;9.60;99.90;;;;;;5073102;28;20024;-74
2024/01/28 06:52:17;;;;;;;1999.90;999.90;;;9.60;99.90;;;;;;5072767;28;20035;-73
2024/01/28 06:54:42;;;;;;;1999.90;999.90;;;9.60;99.90;;;;;;5072641;28;20021;-74
2024/01/28 06:57:08;;;;;;;1999.90;999.90;;;9.60;99.90;;;;;;5072896;28;20533;-74
2024/01/28 06:59:35;;;;;;;1999.90;999.90;;;9.70;99.90;;;;;;5072057;28;20372;-74
2024/01/28 07:02:00;;;;;;;1999.90;999.90;;;9.70;99.90;;;;;;5072402;28;20064;-73
2024/01/28 07:04:26;;;;;;;1999.90;999.90;;;9.70;99.90;;;;;;5072155;28;20039;-73
2024/01/28 07:06:52;;;;;;;1999.90;999.90;;;9.80;99.90;;;;;;5072529;28;20075;-73
2024/01/28 07:09:18;;;;;;;1999.90;999.90;;;9.70;99.90;;;;;;5072448;28;20021;-74
2024/01/28 07:11:44;;;;;;;1999.90;999.90;;;9.70;99.90;;;;;;5072320;28;20052;-74
2024/01/28 07:14:10;;;;;;;1999.90;999.90;;;9.80;99.90;;;;;;5072664;28;20380;-74
2024/01/28 07:16:36;;;;;;;1999.90;999.90;;;9.90;99.90;;;;;;5072377;28;20036;-73
2024/01/28 07:19:02;;;;;;;1999.90;999.90;;;9.90;99.90;;;;;;5072718;28;20082;-73
2024/01/28 07:21:27;;;;;;;1999.90;999.90;;;9.90;99.90;;;;;;5072388;28;20480;-73
2024/01/28 07:23:53;;;;;;;1999.90;999.90;;;9.90;99.90;;;;;;5072494;28;20103;-74
2024/01/28 07:26:19;;;;;;;1999.90;999.90;;;9.80;99.90;;;;;;5072614;28;20105;-73
2024/01/28 07:28:44;;;;;;;1999.90;999.90;;;9.80;99.90;;;;;;5072438;28;20070;-73
2024/01/28 07:31:10;;;;;;;1999.90;999.90;;;9.70;99.90;;;;;;5072724;28;20046;-73
2024/01/28 07:33:35;;;;;;;1999.90;999.90;;;9.60;99.90;;;;;;5072326;28;20051;-73
2024/01/28 07:36:01;;;;;;;1999.90;999.90;;;9.50;99.90;;;;;;5072439;28;20162;-72
2024/01/28 07:38:28;;;;;;;1999.90;999.90;;;9.50;99.90;;;;;;5072218;28;20514;-74
2024/01/28 07:40:54;;;;;;;1999.90;999.90;;;9.50;99.90;;;;;;5072379;28;20035;-74
2024/01/28 07:43:19;;;;;;;1999.90;999.90;;;9.40;99.90;;;;;;5072356;28;20025;-74
2024/01/28 07:45:45;;;;;;;1999.90;999.90;;;9.40;99.90;;;;;;5072102;28;20063;-74
2024/01/28 07:48:11;;;;;;;1999.90;999.90;;;9.40;99.90;;;;;;5072258;28;20536;-74
2024/01/28 07:50:36;;;;;;;1999.90;999.90;;;9.50;99.90;;;;;;5072445;28;20020;-74
2024/01/28 07:53:02;;;;;;;1999.90;999.90;;;9.40;99.90;;;;;;5072177;28;20115;-73
2024/01/28 07:55:28;;;;;;;1999.90;999.90;;;9.40;99.90;;;;;;5072265;28;20377;-73
2024/01/28 07:57:55;;;;;;;1999.90;999.90;;;9.50;99.90;;;;;;5071986;28;20371;-74
2024/01/28 08:00:20;;;;;;;1999.90;999.90;;;9.50;99.90;;;;;;5071761;28;20017;-74
2024/01/28 08:02:46;;;;;;;1999.90;999.90;;;9.60;99.90;;;;;;5071957;28;20090;-74
2024/01/28 08:05:12;;;;;;;1999.90;999.90;;;9.70;99.90;;;;;;5071885;28;20507;-75
2024/01/28 08:07:37;;;;;;;1999.90;999.90;;;9.80;99.90;;;;;;5072131;28;20028;-74
2024/01/28 08:10:03;;;;;;;1999.90;999.90;;;9.80;99.90;;;;;;5072076;28;20070;-74
2024/01/28 08:12:29;;;;;;;1999.90;999.90;;;9.70;99.90;;;;;;5071929;28;20029;-74
2024/01/28 08:14:55;;;;;;;1999.90;999.90;;;9.70;99.90;;;;;;5072135;28;20411;-74
2024/01/28 08:17:21;;;;;;;1999.90;999.90;;;9.70;99.90;;;;;;5072197;28;20028;-74
2024/01/28 08:19:46;;;;;;;1999.90;999.90;;;9.70;99.90;;;;;;5072004;28;20039;-74
2024/01/28 08:22:12;;;;;;;1999.90;999.90;;;9.60;99.90;;;;;;5071710;28;20032;-74
2024/01/28 08:24:38;;;;;;;1999.90;999.90;;;9.60;99.90;;;;;;5075224;28;20025;-74
2024/01/28 08:27:04;;;;;;;1999.90;999.90;;;9.50;99.90;;;;;;5075601;28;20111;-72
2024/01/28 08:29:30;;;;;;;1999.90;999.90;;;9.50;99.90;;;;;;5075478;28;20509;-74
2024/01/28 08:31:57;;;;;;;1999.90;999.90;;;9.50;99.90;;;;;;5075335;28;20029;-74
2024/01/28 08:34:23;;;;;;;1999.90;999.90;;;9.40;99.90;;;;;;5075333;28;20107;-74
2024/01/28 08:36:50;;;;;;;1999.90;999.90;;;9.40;99.90;;;;;;5075279;28;20467;-74
2024/01/28 08:39:15;;;;;;;1999.90;999.90;;;9.40;99.90;;;;;;5075119;28;20475;-74
2024/01/28 08:41:41;;;;;;;1999.90;999.90;;;9.40;99.90;;;;;;5075447;28;20082;-74
2024/01/28 08:44:09;;;;;;;1999.90;999.90;;;9.80;99.90;;;;;;5075272;28;20028;-74
2024/01/28 08:46:39;;;;;;;1999.90;999.90;;;9.90;99.90;;;;;;5075110;28;20043;-74
2024/01/28 08:49:05;;;;;;;1999.90;999.90;;;9.90;99.90;;;;;;5075129;28;20517;-76
2024/01/28 08:51:30;;;;;;;1999.90;999.90;;;10.00;99.90;;;;;;5075305;28;20032;-76
2024/01/28 08:53:56;;;;;;;1999.90;999.90;;;9.90;99.90;;;;;;5074979;28;20021;-76
2024/01/28 08:56:21;;;;;;;1999.90;999.90;;;9.70;99.90;;;;;;5074790;28;20410;-74
2024/01/28 08:58:47;;;;;;;1999.90;999.90;;;9.60;99.90;;;;;;5074890;28;20035;-76
2024/01/28 09:01:13;;;;;;;1999.90;999.90;;;9.60;99.90;;;;;;5074714;28;20028;-76
2024/01/28 09:03:39;;;;;;;1999.90;999.90;;;9.50;99.90;;;;;;5074676;28;20017;-76
2024/01/28 09:06:06;;;;;;;1999.90;999.90;;;9.50;99.90;;;;;;5074842;28;20049;-76
2024/01/28 09:08:32;;;;;;;1999.90;999.90;;;9.50;99.90;;;;;;5056548;28;20024;-76
2024/01/28 09:10:58;;;;;;;1999.90;999.90;;;9.60;99.90;;;;;;5074673;28;20127;-76
2024/01/28 09:13:24;;;;;;;1999.90;999.90;;;9.70;99.90;;;;;;5074691;28;20127;-76
2024/01/28 09:15:50;;;;;;;1999.90;999.90;;;9.80;99.90;;;;;;5074879;28;20491;-76
2024/01/28 09:18:16;;;;;;;1999.90;999.90;;;9.90;99.90;;;;;;5074641;28;20024;-74
2024/01/28 09:20:42;;;;;;;1999.90;999.90;;;10.00;99.90;;;;;;5074338;28;20059;-76
2024/01/28 09:23:08;;;;;;;1999.90;999.90;;;10.00;99.90;;;;;;5074529;28;20025;-76
2024/01/28 09:25:34;;;;;;;1999.90;999.90;;;9.90;99.90;;;;;;5074824;28;20051;-74
2024/01/28 09:28:00;;;;;;;1999.90;999.90;;;9.90;99.90;;;;;;5074238;28;20487;-74
2024/01/28 09:30:25;;;;;;;1999.90;999.90;;;9.90;99.90;;;;;;5074485;28;20028;-74
2024/01/28 09:32:51;;;;;;;1999.90;999.90;;;10.00;99.90;;;;;;5074324;28;20039;-72
2024/01/28 09:35:17;;;;;;;1999.90;999.90;;;10.00;99.90;;;;;;5074143;28;20028;-72
2024/01/28 09:37:42;;;;;;;1999.90;999.90;;;10.00;99.90;;;;;;5074110;28;20103;-74
2024/01/28 09:40:11;;;;;;;1999.90;999.90;;;10.00;99.90;;;;;;5073994;28;20040;-74
2024/01/28 09:42:51;;;;;;;1999.90;999.90;;;10.00;99.90;;;;;;5074208;28;20112;-73
2024/01/28 09:45:16;;;;;;;1999.90;999.90;;;10.00;99.90;;;;;;5073864;28;20032;-75
2024/01/28 09:47:43;;;;;;;1999.90;999.90;;;10.10;99.90;;;;;;5074095;28;20025;-74
2024/01/28 09:50:11;;;;;;;1999.90;999.90;;;10.30;99.90;;;;;;5073836;28;20035;-74
2024/01/28 09:52:37;;;;;;;1999.90;999.90;;;10.30;99.90;;;;;;5073967;28;20028;-74
2024/01/28 09:55:04;;;;;;;1999.90;999.90;;;10.50;99.90;;;;;;5073691;28;20070;-73
2024/01/28 09:57:30;;;;;;;1999.90;999.90;;;10.50;99.90;;;;;;5073882;28;20074;-74
2024/01/28 09:59:56;;;;;;;1999.90;999.90;;;10.60;99.90;;;;;;5073431;28;20509;-74
2024/01/28 10:02:23;;;;;;;1999.90;999.90;;;10.60;99.90;;;;;;5072536;28;20050;-74
2024/01/28 10:04:48;;;;;;;1999.90;999.90;;;10.80;99.90;;;;;;5073220;28;20488;-73
2024/01/28 10:07:15;;;;;;;1999.90;999.90;;;10.80;99.90;;;;;;5073934;28;20063;-74
2024/01/28 10:09:41;;;;;;;1999.90;999.90;;;10.90;99.90;;;;;;5073303;28;20024;-74
2024/01/28 10:12:09;;;;;;;1999.90;999.90;;;11.10;99.90;;;;;;5073299;28;20070;-74
2024/01/28 10:14:34;;;;;;;1999.90;999.90;;;11.20;99.90;;;;;;5072659;28;20807;-73
2024/01/28 10:17:00;;;;;;;1999.90;999.90;;;11.30;99.90;;;;;;5073361;28;20028;-74
2024/01/28 10:19:26;;;;;;;1999.90;999.90;;;11.30;99.90;;;;;;5073312;28;20032;-74
2024/01/28 10:21:52;;;;;;;1999.90;999.90;;;11.40;99.90;;;;;;5072807;28;20032;-75
2024/01/28 10:24:18;;;;;;;1999.90;999.90;;;11.40;99.90;;;;;;5073324;28;20024;-74
2024/01/28 10:26:44;;;;;;;1999.90;999.90;;;11.40;99.90;;;;;;5072978;28;20391;-72
2024/01/28 10:29:12;;;;;;;1999.90;999.90;;;11.50;99.90;;;;;;5073255;28;20077;-73
2024/01/28 10:31:38;;;;;;;1999.90;999.90;;;11.50;99.90;;;;;;5073188;28;20107;-74
2024/01/28 10:34:04;;;;;;;1999.90;999.90;;;11.60;99.90;;;;;;5073115;28;20507;-74
2024/01/28 10:36:39;;;;;;;1999.90;999.90;;;11.70;99.90;;;;;;5073115;28;20024;-73
2024/01/28 10:39:05;;;;;;;1999.90;999.90;;;11.70;99.90;;;;;;5072796;28;20029;-73
2024/01/28 10:41:32;;;;;;;1999.90;999.90;;;11.80;99.90;;;;;;5072983;28;20027;-74
2024/01/28 10:44:02;;;;;;;1999.90;999.90;;;11.80;99.90;;;;;;5072664;28;20031;-74
2024/01/28 10:46:38;;;;;;;1999.90;999.90;;;11.90;99.90;;;;;;5071964;28;20024;-74
2024/01/28 10:49:06;;;;;;;1999.90;999.90;;;12.00;99.90;;;;;;5072555;28;20021;-74
2024/01/28 10:51:39;;;;;;;1999.90;999.90;;;12.10;99.90;;;;;;5072668;28;20028;-74
2024/01/28 10:54:09;;;;;;;;;;;12.30;99.90;;;;;;5073392;28;20032;-74
2024/01/28 10:56:38;;;;;;;1999.90;999.90;;;12.40;99.90;;;;;;5072542;28;19920;-74
2024/01/28 10:59:04;;;;;;;1999.90;999.90;;;12.50;99.90;;;;;;5072588;28;20471;-74
2024/01/28 11:01:32;;;;;;;1999.90;999.90;;;12.50;99.90;;;;;;5072638;28;20056;-72
2024/01/28 11:03:58;;;;;;;1999.90;999.90;;;12.60;99.90;;;;;;5072350;28;20021;-73
2024/01/28 11:06:29;;;;;;;1999.90;999.90;;;12.60;99.90;;;;;;5072583;28;20049;-75
2024/01/28 11:08:55;;;;;;;1999.90;999.90;;;12.80;99.90;;;;;;5071528;28;20510;-74
2024/01/28 11:11:24;;;;;;;1999.90;999.90;;;12.90;99.90;;;;;;5071265;28;20025;-72
2024/01/28 11:13:49;;;;;;;1999.90;999.90;;;13.10;99.90;;;;;;5072807;28;20048;-73
2024/01/28 11:16:16;;;;;;;1999.90;999.90;;;13.30;99.90;;;;;;5072454;28;20056;-72
2024/01/28 11:18:56;;;;;;;1999.90;999.90;;;13.30;99.90;;;;;;5072624;28;20035;-74
2024/01/28 11:21:22;;;;;;;1999.90;999.90;;;13.40;99.90;;;;;;5072345;28;20515;-74
2024/01/28 11:23:48;;;;;;;1999.90;999.90;;;13.50;99.90;;;;;;5072507;28;20025;-74
2024/01/28 11:26:16;;;;;;;1999.90;999.90;;;13.40;99.90;;;;;;5072291;28;20572;-74
2024/01/28 11:28:59;;;;;;;1999.90;999.90;;;13.50;99.90;;;;;;5071566;28;20028;-74
2024/01/28 11:31:33;;;;;;;1999.90;999.90;;;13.60;99.90;;;;;;5072512;28;20028;-74
2024/01/28 11:34:19;;;;;;;1999.90;999.90;;;13.60;99.90;;;;;;5072317;28;20108;-74
2024/01/28 11:36:46;;;;;;;1999.90;999.90;;;13.80;99.90;;;;;;5072312;28;20024;-73
2024/01/28 11:39:13;;;;;;;1999.90;999.90;;;13.80;99.90;;;;;;5072622;28;20132;-74
2024/01/28 11:41:42;;;;;;;1999.90;999.90;;;14.00;99.90;;;;;;5072432;28;20438;-74
2024/01/28 11:44:08;;;;;;;1999.90;999.90;;;13.90;99.90;;;;;;5072718;28;20024;-74
2024/01/28 11:46:38;;;;;;;1999.90;999.90;;;14.20;99.90;;;;;;5072419;28;20473;-74
2024/01/28 11:49:08;;;;;;;1999.90;999.90;;;14.10;99.90;;;;;;5072342;28;20100;-74
2024/01/28 11:51:34;;;;;;;1999.90;999.90;;;14.20;99.90;;;;;;5071998;28;20044;-74
2024/01/28 11:54:02;;;;;;;1999.90;999.90;;;14.30;99.90;;;;;;5072196;28;20024;-74
2024/01/28 11:56:28;;;;;;;1999.90;999.90;;;14.40;99.90;;;;;;5072026;28;20017;-73
2024/01/28 11:58:56;;;;;;;1999.90;999.90;;;14.50;99.90;;;;;;5076237;28;20029;-75
2024/01/28 12:01:22;;;;;;;1999.90;999.90;;;14.70;99.90;;;;;;5075808;28;20028;-73